Time;durP1;ratioP1;P1;durP2;ratioP2;P2;SDS_P1;SDS_P2;PMS_P1;PMS_P2;Temp;Humidity;BMP_temperature;BMP_pressure;BME280_temperature;BME280_humidity;BME280_pressure;Samples;Min_cycle;Max_cycle;Signal;HPM_P1;HPM_P2
2022/01/14 00:01:34;;;;;;;175.43;42.10;;;5.80;99.90;;;;;;5031897;28;20061;-81
2022/01/14 00:04:00;;;;;;;191.90;42.28;;;5.80;99.90;;;;;;5015930;28;20041;-81
2022/01/14 00:06:26;;;;;;;138.20;40.10;;;5.80;99.90;;;;;;5015617;28;20103;-81
2022/01/14 00:08:57;;;;;;;139.32;38.75;;;5.80;99.90;;;;;;4999336;28;20099;-81
2022/01/14 00:11:23;;;;;;;144.07;40.95;;;5.80;99.90;;;;;;5015591;28;20049;-81
2022/01/14 00:13:56;;;;;;;140.43;40.38;;;5.80;99.90;;;;;;5015624;28;20052;-81
2022/01/14 00:16:22;;;;;;;129.18;39.17;;;5.80;99.90;;;;;;5016187;28;20048;-81
2022/01/14 00:18:47;;;;;;;129.15;40.33;;;5.70;99.90;;;;;;5015466;28;20423;-81
2022/01/14 00:21:13;;;;;;;122.15;39.75;;;5.80;99.90;;;;;;5015377;28;20098;-81
2022/01/14 00:23:41;;;;;;;121.15;38.90;;;5.80;99.90;;;;;;5031925;28;20038;-81
2022/01/14 00:31:52;;;;;;;111.72;39.13;;;5.80;99.90;;;;;;5031548;28;20045;-81
2022/01/14 00:34:18;;;;;;;104.82;37.95;;;5.80;99.90;;;;;;5015718;28;20047;-81
2022/01/14 00:36:44;;;;;;;102.72;38.10;;;5.80;99.90;;;;;;5015229;28;20128;-81
2022/01/14 00:39:12;;;;;;;102.18;38.28;;;5.90;99.90;;;;;;5032028;28;20502;-81
2022/01/14 00:41:38;;;;;;;94.68;38.58;;;5.90;99.90;;;;;;5014524;28;20141;-81
2022/01/14 00:44:10;;;;;;;97.85;37.40;;;5.90;99.90;;;;;;4998929;28;20041;-81
2022/01/14 00:46:42;;;;;;;87.30;35.40;;;5.90;99.90;;;;;;5031610;28;20049;-81
2022/01/14 00:49:08;;;;;;;91.57;37.25;;;5.90;99.90;;;;;;5015169;28;20053;-81
2022/01/14 00:51:35;;;;;;;85.82;36.85;;;5.90;99.90;;;;;;5018048;28;20572;-81
2022/01/14 00:54:01;;;;;;;100.20;38.20;;;5.90;99.90;;;;;;5035849;28;20401;-81
2022/01/14 00:56:32;;;;;;;85.22;36.80;;;6.00;99.90;;;;;;5018074;28;20076;-81
2022/01/14 00:59:14;;;;;;;81.23;37.10;;;6.00;99.90;;;;;;5019961;28;20103;-81
2022/01/14 01:01:44;;;;;;;77.20;36.25;;;5.90;99.90;;;;;;5035361;28;20294;-81
2022/01/14 01:04:16;;;;;;;86.28;37.80;;;5.90;99.90;;;;;;5019012;28;20037;-81
2022/01/14 01:06:42;;;;;;;86.10;35.63;;;5.90;99.90;;;;;;5035549;28;20447;-81
2022/01/14 01:09:13;;;;;;;81.85;37.22;;;6.00;99.90;;;;;;5002577;28;20088;-81
2022/01/14 01:11:47;;;;;;;83.28;37.58;;;6.00;99.90;;;;;;5018816;28;20045;-81
2022/01/14 01:14:18;;;;;;;86.65;38.17;;;5.90;99.90;;;;;;5018822;28;20088;-81
2022/01/14 01:16:43;;;;;;;86.45;36.60;;;6.00;99.90;;;;;;5019366;28;20052;-81
2022/01/14 01:19:10;;;;;;;79.95;37.47;;;6.00;99.90;;;;;;5002326;28;20041;-81
2022/01/14 01:21:36;;;;;;;84.65;36.88;;;6.00;99.90;;;;;;5018228;28;20045;-81
2022/01/14 01:24:02;;;;;;;84.38;37.58;;;6.00;99.90;;;;;;5035184;28;20103;-81
2022/01/14 01:26:38;;;;;;;82.47;38.97;;;6.00;99.90;;;;;;5017383;28;20136;-81
2022/01/14 01:29:30;;;;;;;82.60;36.60;;;6.00;99.90;;;;;;5020110;28;20049;-81
2022/01/14 01:31:52;;;;;;;79.30;36.63;;;6.00;99.90;;;;;;5020975;28;20077;-81
2022/01/14 01:34:21;;;;;;;78.70;37.03;;;6.00;99.90;;;;;;5034875;28;20076;-81
2022/01/14 01:36:53;;;;;;;84.85;37.80;;;6.00;99.90;;;;;;5018019;28;20046;-81
2022/01/14 01:39:20;;;;;;;;;;;6.00;99.90;;;;;;5019034;28;20042;-81
2022/01/14 01:41:52;;;;;;;81.18;35.55;;;6.00;99.90;;;;;;5017142;28;19917;-81
2022/01/14 01:44:20;;;;;;;73.32;36.20;;;6.00;99.90;;;;;;5018163;28;20045;-81
2022/01/14 01:46:47;;;;;;;75.18;35.60;;;6.00;99.90;;;;;;5034354;28;20048;-81
2022/01/14 01:49:16;;;;;;;74.68;35.97;;;6.00;99.90;;;;;;5034153;28;20122;-81
2022/01/14 01:51:43;;;;;;;69.13;34.75;;;6.00;99.90;;;;;;5017822;28;20053;-81
2022/01/14 01:54:09;;;;;;;72.50;36.15;;;6.00;99.90;;;;;;5018148;28;20038;-81
2022/01/14 01:56:35;;;;;;;73.45;36.75;;;6.00;99.90;;;;;;5000840;28;20045;-81
2022/01/14 01:59:00;;;;;;;74.88;36.30;;;6.00;99.90;;;;;;5017698;28;20045;-81
2022/01/14 02:01:26;;;;;;;78.60;37.08;;;6.00;99.90;;;;;;5033734;28;20485;-81
2022/01/14 02:03:56;;;;;;;78.25;38.25;;;6.00;99.90;;;;;;5034282;28;20042;-81
2022/01/14 02:06:23;;;;;;;78.75;37.05;;;6.00;99.90;;;;;;5017535;28;20127;-81
2022/01/14 02:08:48;;;;;;;71.15;36.15;;;6.00;99.90;;;;;;5018190;28;20037;-81
2022/01/14 02:11:15;;;;;;;73.32;37.75;;;6.10;99.90;;;;;;5016940;28;20041;-81
2022/01/14 02:13:41;;;;;;;73.82;37.70;;;6.10;99.90;;;;;;5017886;28;20472;-81
2022/01/14 02:24:32;;;;;;;70.60;35.40;;;6.00;99.90;;;;;;5020198;28;20397;-81
2022/01/14 02:26:58;;;;;;;75.40;37.28;;;6.00;99.90;;;;;;5019552;28;20521;-81
2022/01/14 02:29:24;;;;;;;74.05;37.25;;;6.00;99.90;;;;;;5033811;28;20049;-81
2022/01/14 02:31:50;;;;;;;78.35;38.13;;;6.00;99.90;;;;;;5017099;28;20492;-81
2022/01/14 02:34:16;;;;;;;78.95;38.58;;;6.00;99.90;;;;;;5000950;28;20081;-81
2022/01/14 02:36:44;;;;;;;75.28;37.17;;;6.00;99.90;;;;;;5016941;28;20126;-81
2022/01/14 02:39:12;;;;;;;82.15;38.88;;;6.00;99.90;;;;;;5033922;28;20485;-81
2022/01/14 02:41:40;;;;;;;73.78;38.17;;;6.00;99.90;;;;;;5000016;28;20489;-81
2022/01/14 02:44:11;;;;;;;79.72;38.22;;;6.00;99.90;;;;;;5033480;28;20128;-81
2022/01/14 02:46:42;;;;;;;78.90;38.42;;;6.00;99.90;;;;;;5016883;28;20045;-81
2022/01/14 02:49:08;;;;;;;71.22;38.65;;;6.00;99.90;;;;;;5001086;28;20057;-81
2022/01/14 02:51:34;;;;;;;74.35;38.80;;;6.00;99.90;;;;;;5016859;28;20559;-81
2022/01/14 02:54:12;;;;;;;78.05;38.72;;;6.00;99.90;;;;;;5000486;28;20072;-81
2022/01/14 02:56:42;;;;;;;79.63;38.60;;;6.00;99.90;;;;;;5032304;28;20142;-81
2022/01/14 02:59:10;;;;;;;80.28;38.83;;;6.00;99.90;;;;;;5016857;28;20041;-81
2022/01/14 03:01:37;;;;;;;77.72;39.25;;;6.00;99.90;;;;;;5016967;28;20072;-81
2022/01/14 03:04:04;;;;;;;80.63;40.80;;;6.00;99.90;;;;;;5016790;28;20420;-81
2022/01/14 03:06:31;;;;;;;79.05;38.88;;;6.00;99.90;;;;;;5016402;28;20045;-81
2022/01/14 03:08:58;;;;;;;78.97;40.20;;;6.00;99.90;;;;;;5016980;28;20452;-81
2022/01/14 03:11:34;;;;;;;77.40;39.35;;;6.00;99.90;;;;;;4999464;28;20412;-81
2022/01/14 03:14:01;;;;;;;77.32;40.05;;;6.00;99.90;;;;;;5032162;28;20042;-81
2022/01/14 03:16:27;;;;;;;80.40;40.15;;;6.10;99.90;;;;;;5016635;28;20102;-81
2022/01/14 03:19:04;;;;;;;80.90;41.88;;;6.10;99.90;;;;;;5016414;28;20049;-81
2022/01/14 03:21:36;;;;;;;82.53;40.83;;;6.10;99.90;;;;;;5032573;28;20052;-80
2022/01/14 03:26:52;;;;;;;76.75;41.45;;;6.00;99.90;;;;;;4986470;28;20056;-81
2022/01/14 03:29:19;;;;;;;76.38;40.28;;;6.10;99.90;;;;;;5016525;28;20037;-81
2022/01/14 03:31:46;;;;;;;79.97;41.80;;;6.10;99.90;;;;;;5032393;28;20060;-81
2022/01/14 03:34:13;;;;;;;79.55;42.63;;;6.20;99.90;;;;;;5016115;28;20045;-81
2022/01/14 03:36:39;;;;;;;78.38;43.17;;;6.10;99.90;;;;;;5032250;28;20095;-81
2022/01/14 03:39:05;;;;;;;86.65;43.53;;;6.10;99.90;;;;;;4983585;28;20046;-81
2022/01/14 03:41:31;;;;;;;85.28;42.58;;;6.10;99.90;;;;;;4982617;28;20072;-81
2022/01/14 03:43:56;;;;;;;83.57;40.63;;;6.10;99.90;;;;;;5015795;28;20076;-81
2022/01/14 03:46:22;;;;;;;86.82;42.95;;;6.10;99.90;;;;;;5032103;28;20047;-81
2022/01/14 03:48:48;;;;;;;87.63;44.53;;;6.00;99.90;;;;;;4999234;28;20045;-81
2022/01/14 03:51:14;;;;;;;86.30;43.10;;;6.10;99.90;;;;;;5031451;28;20139;-80
2022/01/14 03:53:40;;;;;;;82.25;42.05;;;6.00;99.90;;;;;;4999505;28;20105;-80
2022/01/14 03:56:06;;;;;;;83.88;41.55;;;6.00;99.90;;;;;;5014779;28;20421;-80
2022/01/14 03:58:32;;;;;;;81.20;40.83;;;6.00;99.90;;;;;;5015741;28;20037;-80
2022/01/14 04:00:58;;;;;;;83.05;42.28;;;6.00;99.90;;;;;;5015398;28;20072;-80
2022/01/14 04:03:23;;;;;;;87.10;42.90;;;6.00;99.90;;;;;;5032113;28;20079;-80
2022/01/14 04:05:50;;;;;;;86.30;41.63;;;6.00;99.90;;;;;;5015357;28;20124;-80
2022/01/14 04:08:16;;;;;;;85.90;42.58;;;6.00;99.90;;;;;;5031980;28;20045;-81
2022/01/14 04:10:42;;;;;;;82.35;42.00;;;6.00;99.90;;;;;;5031150;28;20047;-81
2022/01/14 04:13:16;;;;;;;86.30;43.08;;;6.00;99.90;;;;;;5032174;28;20049;-81
2022/01/14 04:15:44;;;;;;;83.93;42.00;;;6.00;99.90;;;;;;5015710;28;20041;-81
2022/01/14 04:18:16;;;;;;;87.28;41.53;;;6.00;99.90;;;;;;5031808;28;20064;-81
2022/01/14 04:20:48;;;;;;;81.10;41.92;;;6.00;99.90;;;;;;5031379;28;20048;-81
2022/01/14 04:23:18;;;;;;;83.45;40.75;;;6.00;99.90;;;;;;5031980;28;20104;-81
2022/01/14 04:25:44;;;;;;;76.10;39.42;;;6.00;99.90;;;;;;5014260;28;20041;-81
2022/01/14 04:28:11;;;;;;;80.97;39.15;;;6.00;99.90;;;;;;5015863;28;20511;-81
2022/01/14 04:30:37;;;;;;;80.82;39.92;;;6.00;99.90;;;;;;5031623;28;20041;-81
2022/01/14 04:33:04;;;;;;;79.75;39.50;;;6.00;99.90;;;;;;4999236;28;20373;-81
2022/01/14 04:35:31;;;;;;;78.90;39.88;;;6.00;99.90;;;;;;5015483;28;20477;-82
2022/01/14 04:37:57;;;;;;;79.88;39.65;;;6.00;99.90;;;;;;5015262;28;20538;-81
2022/01/14 04:40:23;;;;;;;74.15;38.33;;;6.00;99.90;;;;;;5014510;28;20050;-81
2022/01/14 04:42:51;;;;;;;80.38;40.25;;;5.90;99.90;;;;;;5015187;28;20033;-81
2022/01/14 04:46:13;;;;;;;75.97;37.92;;;6.00;99.90;;;;;;5015660;28;20536;-81
2022/01/14 04:48:09;;;;;;;80.50;40.13;;;5.90;99.90;;;;;;5020918;28;20056;-81
2022/01/14 04:50:35;;;;;;;78.88;40.40;;;6.00;99.90;;;;;;5031603;28;20456;-81
2022/01/14 04:53:01;;;;;;;80.75;39.10;;;6.00;99.90;;;;;;5031761;28;20052;-81
2022/01/14 04:55:29;;;;;;;75.80;38.17;;;6.00;99.90;;;;;;5014051;28;20095;-81
2022/01/14 04:57:56;;;;;;;79.03;40.35;;;6.00;99.90;;;;;;5015098;28;20048;-81
2022/01/14 05:00:28;;;;;;;77.85;39.15;;;6.00;99.90;;;;;;5014880;28;20084;-81
2022/01/14 05:02:55;;;;;;;78.70;39.00;;;6.00;99.90;;;;;;5015080;28;20163;-81
2022/01/14 05:05:23;;;;;;;76.60;38.95;;;5.90;99.90;;;;;;5031117;28;20041;-81
2022/01/14 05:07:50;;;;;;;74.95;39.10;;;6.10;99.90;;;;;;5015455;28;20044;-81
2022/01/14 05:12:49;;;;;;;;;;;6.00;99.90;;;;;;5016291;28;20048;-81
2022/01/14 05:15:16;;;;;;;73.32;38.70;;;5.90;99.90;;;;;;5014801;28;19920;-81
2022/01/14 05:17:43;;;;;;;73.18;38.10;;;5.90;99.90;;;;;;5014727;28;20049;-81
2022/01/14 05:20:09;;;;;;;73.35;37.00;;;5.90;99.90;;;;;;4998663;28;20408;-81
2022/01/14 05:22:35;;;;;;;75.88;38.63;;;5.90;99.90;;;;;;4996392;28;20068;-81
2022/01/14 05:25:01;;;;;;;67.00;37.45;;;5.90;99.90;;;;;;4994625;28;20038;-81
2022/01/14 05:27:27;;;;;;;70.57;37.38;;;6.00;99.90;;;;;;4994257;28;20476;-81
2022/01/14 05:29:52;;;;;;;69.32;38.28;;;5.90;99.90;;;;;;5011466;28;20046;-81
2022/01/14 05:32:20;;;;;;;72.47;36.13;;;6.00;99.90;;;;;;5023126;28;20128;-81
2022/01/14 05:34:46;;;;;;;73.03;37.85;;;6.00;99.90;;;;;;4983927;28;20049;-81
2022/01/14 05:37:12;;;;;;;73.93;38.80;;;5.90;99.90;;;;;;5016346;28;20374;-81
2022/01/14 05:39:38;;;;;;;67.70;36.65;;;5.90;99.90;;;;;;5034683;28;20045;-81
2022/01/14 05:42:04;;;;;;;74.35;39.28;;;6.00;99.90;;;;;;5017484;28;20397;-81
2022/01/14 05:44:31;;;;;;;64.43;35.08;;;5.90;99.90;;;;;;5001834;28;20037;-81
2022/01/14 05:46:59;;;;;;;70.50;36.92;;;5.90;99.90;;;;;;5031498;28;20037;-81
2022/01/14 05:49:25;;;;;;;63.67;35.05;;;6.00;99.90;;;;;;5033951;28;20076;-81
2022/01/14 05:51:51;;;;;;;78.25;38.60;;;6.00;99.90;;;;;;5017738;28;20140;-81
2022/01/14 05:54:18;;;;;;;66.15;35.80;;;5.90;99.90;;;;;;5034539;28;20127;-81
2022/01/14 05:56:44;;;;;;;63.15;35.85;;;5.90;99.90;;;;;;5016205;28;20077;-81
2022/01/14 05:59:11;;;;;;;67.95;36.15;;;5.90;99.90;;;;;;5028691;28;20041;-81
2022/01/14 06:01:37;;;;;;;62.38;35.22;;;5.80;99.90;;;;;;5017193;28;20036;-81
2022/01/14 06:04:04;;;;;;;61.72;36.45;;;5.80;99.90;;;;;;5025567;28;20053;-81
2022/01/14 06:06:31;;;;;;;63.90;37.03;;;5.80;99.90;;;;;;5001701;28;20037;-81
2022/01/14 06:08:57;;;;;;;66.45;36.65;;;5.80;99.90;;;;;;5016778;28;20401;-81
2022/01/14 06:11:24;;;;;;;64.55;36.60;;;5.80;99.90;;;;;;5032563;28;20045;-81
2022/01/14 06:13:49;;;;;;;68.13;36.63;;;5.80;99.90;;;;;;5017580;28;20160;-81
2022/01/14 06:16:16;;;;;;;65.10;36.22;;;5.70;99.90;;;;;;5000872;28;20045;-81
2022/01/14 06:18:42;;;;;;;64.93;36.05;;;5.80;99.90;;;;;;5017746;28;20045;-81
2022/01/14 06:21:08;;;;;;;63.75;36.75;;;5.80;99.90;;;;;;5016352;28;20456;-81
2022/01/14 06:23:34;;;;;;;61.33;36.47;;;5.80;99.90;;;;;;4999190;28;20253;-81
2022/01/14 06:26:00;;;;;;;67.03;36.13;;;5.80;99.90;;;;;;5031110;28;20029;-81
2022/01/14 06:28:26;;;;;;;62.13;35.72;;;5.70;99.90;;;;;;4999368;28;20038;-81
2022/01/14 06:30:52;;;;;;;63.70;36.83;;;5.70;99.90;;;;;;4999377;28;20044;-81
2022/01/14 06:33:18;;;;;;;63.17;36.40;;;5.70;99.90;;;;;;5015853;28;20053;-81
2022/01/14 06:35:44;;;;;;;67.63;36.75;;;5.70;99.90;;;;;;5016678;28;20045;-81
2022/01/14 06:38:10;;;;;;;67.88;36.47;;;5.70;99.90;;;;;;5017166;28;20041;-81
2022/01/14 06:40:37;;;;;;;59.63;36.15;;;5.70;99.90;;;;;;5016201;28;20047;-81
2022/01/14 06:43:04;;;;;;;64.15;36.28;;;5.70;99.90;;;;;;5017137;28;20073;-81
2022/01/14 06:45:31;;;;;;;60.78;36.33;;;5.70;99.90;;;;;;5017108;28;20124;-81
2022/01/14 06:47:57;;;;;;;60.50;34.25;;;5.70;99.90;;;;;;5035675;28;20037;-81
2022/01/14 06:50:24;;;;;;;62.38;37.40;;;5.70;99.90;;;;;;5020373;28;20057;-80
2022/01/14 06:52:51;;;;;;;69.85;36.20;;;5.80;99.90;;;;;;5020268;28;20045;-80
2022/01/14 06:55:17;;;;;;;67.82;37.97;;;5.70;99.90;;;;;;5019921;28;20041;-80
2022/01/14 06:57:43;;;;;;;67.30;37.28;;;5.70;99.90;;;;;;5019886;28;20512;-80
2022/01/14 07:00:11;;;;;;;66.53;37.45;;;5.70;99.90;;;;;;5003680;28;20075;-80
2022/01/14 07:02:37;;;;;;;66.78;37.05;;;5.70;99.90;;;;;;5020035;28;20084;-80
2022/01/14 07:05:04;;;;;;;63.30;37.05;;;5.70;99.90;;;;;;5003614;28;20036;-80
2022/01/14 07:07:30;;;;;;;62.85;36.75;;;5.70;99.90;;;;;;5020011;28;20048;-80
2022/01/14 07:09:57;;;;;;;74.47;38.08;;;5.70;99.90;;;;;;5003389;28;20041;-80
2022/01/14 07:12:28;;;;;;;66.20;36.92;;;5.60;99.90;;;;;;5002728;28;20044;-80
2022/01/14 07:14:54;;;;;;;67.38;37.15;;;5.70;99.90;;;;;;5019808;28;20052;-80
2022/01/14 07:17:24;;;;;;;68.50;37.60;;;5.60;99.90;;;;;;5019887;28;20072;-80
2022/01/14 07:19:53;;;;;;;63.80;36.78;;;5.70;99.90;;;;;;5036015;28;20036;-80
2022/01/14 07:22:19;;;;;;;60.92;35.95;;;5.70;99.90;;;;;;5019483;28;20083;-80
2022/01/14 07:24:45;;;;;;;64.53;36.88;;;5.70;99.90;;;;;;5003261;28;20084;-80
2022/01/14 07:27:11;;;;;;;61.70;35.67;;;5.60;99.90;;;;;;5018552;28;20036;-80
2022/01/14 07:29:38;;;;;;;64.60;36.58;;;5.70;99.90;;;;;;5019359;28;20082;-80
2022/01/14 07:32:05;;;;;;;62.13;36.45;;;5.70;99.90;;;;;;5019239;28;20099;-80
2022/01/14 07:34:32;;;;;;;63.92;34.95;;;5.70;99.90;;;;;;5003344;28;20041;-80
2022/01/14 07:36:57;;;;;;;64.72;35.72;;;5.70;99.90;;;;;;5035698;28;20041;-80
2022/01/14 07:39:23;;;;;;;58.10;33.70;;;5.70;99.90;;;;;;5035913;28;20052;-80
2022/01/14 07:41:50;;;;;;;59.08;34.88;;;5.70;99.90;;;;;;5018253;28;20040;-80
2022/01/14 07:44:16;;;;;;;60.38;35.70;;;5.70;99.90;;;;;;5019410;28;20110;-80
2022/01/14 07:46:42;;;;;;;60.65;36.63;;;5.70;99.90;;;;;;4986615;28;20051;-80
2022/01/14 07:49:09;;;;;;;58.22;34.97;;;5.70;99.90;;;;;;5003010;28;20512;-80
2022/01/14 07:51:35;;;;;;;58.60;34.80;;;6.00;99.90;;;;;;5035617;28;20051;-80
2022/01/14 07:54:05;;;;;;;61.17;36.28;;;5.80;99.90;;;;;;5035694;28;20041;-80
2022/01/14 07:57:00;;;;;;;59.35;36.33;;;5.70;99.90;;;;;;5018285;28;20087;-80
2022/01/14 07:59:30;;;;;;;56.85;34.67;;;5.70;99.90;;;;;;5002079;28;20461;-80
2022/01/14 08:02:01;;;;;;;57.50;34.35;;;5.70;99.90;;;;;;5015733;28;20485;-80
2022/01/14 08:04:27;;;;;;;61.55;35.97;;;5.80;99.90;;;;;;5000144;28;20033;-80
2022/01/14 08:06:57;;;;;;;57.08;35.22;;;5.70;99.90;;;;;;5033996;28;20033;-80
2022/01/14 08:09:23;;;;;;;61.95;34.72;;;5.80;99.90;;;;;;5034998;28;20412;-81
2022/01/14 08:11:50;;;;;;;59.55;34.15;;;5.70;99.90;;;;;;5050653;28;20048;-81
2022/01/14 08:14:16;;;;;;;55.03;35.50;;;5.80;99.90;;;;;;5002507;28;20041;-81
2022/01/14 08:16:42;;;;;;;55.72;31.65;;;5.80;99.90;;;;;;5000743;28;20033;-81
2022/01/14 08:19:08;;;;;;;53.20;33.42;;;5.80;99.90;;;;;;5033455;28;20066;-81
2022/01/14 08:21:34;;;;;;;54.80;34.53;;;5.80;99.90;;;;;;5015457;28;20136;-81
2022/01/14 08:24:00;;;;;;;55.05;33.45;;;5.80;99.90;;;;;;5022894;28;20155;-81
2022/01/14 08:26:25;;;;;;;56.60;33.88;;;5.80;99.90;;;;;;5033678;28;20033;-81
2022/01/14 08:28:51;;;;;;;57.65;33.58;;;5.80;99.90;;;;;;5031788;28;20509;-81
2022/01/14 08:31:18;;;;;;;53.28;33.50;;;5.80;99.90;;;;;;5015195;28;20045;-81
2022/01/14 08:33:46;;;;;;;57.72;34.53;;;5.90;99.90;;;;;;5021090;28;20050;-81
2022/01/14 08:36:12;;;;;;;53.90;33.25;;;5.80;99.90;;;;;;5017904;28;20047;-81
2022/01/14 08:38:38;;;;;;;53.85;32.58;;;5.90;99.90;;;;;;5018842;28;20129;-81
2022/01/14 08:41:05;;;;;;;53.13;32.83;;;5.90;99.90;;;;;;5033470;28;20075;-81
2022/01/14 08:43:31;;;;;;;50.10;33.30;;;5.90;99.90;;;;;;5026286;28;20044;-81
2022/01/14 08:46:02;;;;;;;53.30;33.63;;;6.00;99.90;;;;;;5034234;28;20040;-81
2022/01/14 08:48:30;;;;;;;53.78;31.83;;;5.90;99.90;;;;;;5017995;28;20057;-81
2022/01/14 08:50:57;;;;;;;51.78;31.55;;;5.90;99.90;;;;;;5017769;28;20037;-81
2022/01/14 08:53:23;;;;;;;49.25;32.00;;;5.90;99.90;;;;;;5031954;28;20051;-81
2022/01/14 08:55:48;;;;;;;49.65;31.70;;;6.00;99.90;;;;;;5017852;28;20127;-81
2022/01/14 08:58:14;;;;;;;50.30;31.65;;;6.00;99.90;;;;;;5018327;28;20056;-81
2022/01/14 09:00:40;;;;;;;49.38;31.77;;;6.00;99.90;;;;;;5034700;28;20400;-81
2022/01/14 09:03:06;;;;;;;49.78;31.80;;;6.00;99.90;;;;;;5051461;28;20129;-81
2022/01/14 09:05:32;;;;;;;53.92;32.10;;;6.10;99.90;;;;;;5034851;28;20068;-81
2022/01/14 09:08:00;;;;;;;50.00;31.67;;;6.10;99.90;;;;;;5018332;28;20041;-81
2022/01/14 09:10:25;;;;;;;53.97;32.42;;;6.10;99.90;;;;;;5017122;28;20041;-81
2022/01/14 09:12:51;;;;;;;50.05;31.40;;;6.10;99.90;;;;;;5021535;28;20040;-81
2022/01/14 09:15:18;;;;;;;48.85;30.90;;;6.10;99.90;;;;;;5005732;28;20432;-81
2022/01/14 09:17:43;;;;;;;49.58;31.20;;;6.10;99.90;;;;;;5022015;28;20045;-81
2022/01/14 09:20:13;;;;;;;48.78;30.17;;;6.10;99.90;;;;;;5021628;28;20489;-81
2022/01/14 09:22:41;;;;;;;51.45;31.13;;;6.20;99.90;;;;;;5038687;28;20033;-81
2022/01/14 09:25:08;;;;;;;50.53;30.33;;;6.20;99.90;;;;;;5021743;28;20037;-81
2022/01/14 09:27:34;;;;;;;45.33;29.15;;;6.20;99.90;;;;;;5020816;28;20052;-81
2022/01/14 09:30:01;;;;;;;44.55;29.02;;;6.20;99.90;;;;;;5021832;28;20045;-81
2022/01/14 09:32:26;;;;;;;44.03;27.83;;;6.20;99.90;;;;;;5005613;28;20440;-81
2022/01/14 09:34:53;;;;;;;45.70;27.52;;;6.30;99.90;;;;;;5005693;28;20131;-81
2022/01/14 09:37:18;;;;;;;44.75;27.40;;;6.40;99.90;;;;;;5005183;28;20037;-81
2022/01/14 09:39:44;;;;;;;44.65;27.60;;;6.40;99.90;;;;;;5038133;28;20083;-81
2022/01/14 09:42:12;;;;;;;48.22;28.13;;;6.40;99.90;;;;;;5017076;28;20405;-81
2022/01/14 09:44:41;;;;;;;45.95;28.48;;;6.40;99.90;;;;;;5020253;28;20041;-81
2022/01/14 09:47:07;;;;;;;44.28;27.30;;;6.40;99.90;;;;;;5032903;28;20270;-81
2022/01/14 09:49:33;;;;;;;40.33;27.00;;;6.50;99.90;;;;;;5020698;28;20512;-81
2022/01/14 09:51:59;;;;;;;41.65;26.45;;;6.50;99.90;;;;;;5020510;28;20044;-81
2022/01/14 09:54:24;;;;;;;42.30;25.67;;;6.60;99.90;;;;;;5020498;28;20037;-81
2022/01/14 09:56:50;;;;;;;38.05;25.90;;;6.60;99.90;;;;;;5000274;28;20409;-81
2022/01/14 09:59:18;;;;;;;41.38;25.10;;;6.60;99.90;;;;;;5019732;28;20033;-81
2022/01/14 10:01:47;;;;;;;35.63;22.48;;;6.60;99.90;;;;;;5021160;28;20041;-81
2022/01/14 10:04:22;;;;;;;39.10;23.40;;;6.70;99.90;;;;;;5054237;28;20048;-81
2022/01/14 10:06:54;;;;;;;39.00;23.58;;;6.70;99.90;;;;;;5037423;28;20078;-81
2022/01/14 10:09:37;;;;;;;40.05;22.85;;;6.70;99.90;;;;;;5021054;28;20105;-81
2022/01/14 10:12:16;;;;;;;35.22;23.52;;;6.70;99.90;;;;;;5036652;28;20059;-81
2022/01/14 10:15:03;;;;;;;37.60;22.55;;;6.80;99.90;;;;;;5020872;28;20076;-81
2022/01/14 10:17:43;;;;;;;37.97;22.08;;;6.80;99.90;;;;;;5017090;28;20531;-81
2022/01/14 10:20:12;;;;;;;32.85;21.27;;;6.80;99.90;;;;;;5037554;28;20048;-81
2022/01/14 10:22:43;;;;;;;35.58;21.05;;;6.90;99.90;;;;;;5037145;28;20044;-81
2022/01/14 10:25:11;;;;;;;34.15;21.20;;;6.90;99.90;;;;;;5019978;28;20451;-81
2022/01/14 10:27:40;;;;;;;33.58;20.08;;;6.90;99.90;;;;;;5019280;28;20120;-81
2022/01/14 10:30:16;;;;;;;31.58;18.88;;;7.00;99.90;;;;;;5020105;28;20033;-81
2022/01/14 10:32:43;;;;;;;29.00;18.05;;;7.00;99.90;;;;;;5036457;28;20037;-81
2022/01/14 10:35:15;;;;;;;27.38;18.17;;;7.00;99.90;;;;;;5024535;28;20086;-81
2022/01/14 10:37:41;;;;;;;31.73;18.42;;;7.00;99.90;;;;;;5009001;28;20060;-81
2022/01/14 10:40:24;;;;;;;34.10;18.40;;;7.10;99.90;;;;;;5014979;28;20496;-81
2022/01/14 10:42:58;;;;;;;27.90;17.48;;;7.10;99.90;;;;;;5052324;28;21267;-81
2022/01/14 10:45:27;;;;;;;27.63;16.48;;;7.20;99.90;;;;;;5036486;28;20041;-81
2022/01/14 10:48:03;;;;;;;28.35;16.13;;;7.20;99.90;;;;;;5036261;28;20056;-81
2022/01/14 10:50:38;;;;;;;28.00;15.70;;;7.20;99.90;;;;;;5003033;28;20076;-81
2022/01/14 10:53:25;;;;;;;26.88;15.55;;;7.20;99.90;;;;;;5022708;28;20381;-81
2022/01/14 10:55:52;;;;;;;28.02;16.33;;;7.20;99.90;;;;;;5050173;28;20044;-80
2022/01/14 10:58:25;;;;;;;27.27;15.68;;;7.20;99.90;;;;;;5003919;28;20040;-80
2022/01/14 11:00:59;;;;;;;27.88;16.02;;;7.20;99.90;;;;;;5020174;28;20068;-80
2022/01/14 11:03:44;;;;;;;24.95;14.38;;;7.20;99.90;;;;;;5018883;28;20033;-80
2022/01/14 11:06:25;;;;;;;24.42;14.63;;;7.20;99.90;;;;;;5015922;28;20392;-80
2022/01/14 11:09:04;;;;;;;26.98;14.65;;;7.20;99.90;;;;;;5000724;28;20033;-80
2022/01/14 11:11:38;;;;;;;30.65;14.90;;;7.20;99.90;;;;;;5014855;28;20038;-80
2022/01/14 11:14:06;;;;;;;25.73;14.85;;;7.20;99.90;;;;;;5016628;28;20408;-80
2022/01/14 11:16:33;;;;;;;25.83;13.35;;;7.20;99.90;;;;;;4999937;28;20049;-80
2022/01/14 11:19:01;;;;;;;21.67;13.55;;;7.20;99.90;;;;;;5016527;28;20068;-80
2022/01/14 11:24:34;;;;;;;23.55;13.02;;;7.20;99.90;;;;;;4988723;28;20128;-80
2022/01/14 11:27:14;;;;;;;23.77;11.52;;;7.20;99.90;;;;;;4999245;28;20135;-80
2022/01/14 11:29:42;;;;;;;24.13;11.93;;;7.20;99.90;;;;;;5016701;28;20037;-80
2022/01/14 11:32:09;;;;;;;23.85;11.63;;;7.20;99.90;;;;;;5016006;28;20037;-80
2022/01/14 11:34:45;;;;;;;21.48;11.90;;;7.20;99.90;;;;;;4983043;28;20049;-80
2022/01/14 11:37:14;;;;;;;24.60;11.80;;;7.20;99.90;;;;;;4999438;28;20051;-80
2022/01/14 11:39:54;;;;;;;23.45;11.40;;;7.20;99.90;;;;;;5016398;28;20564;-80
2022/01/14 11:42:37;;;;;;;24.83;12.20;;;7.20;99.90;;;;;;5015202;28;20045;-80
2022/01/14 11:45:05;;;;;;;23.30;11.45;;;7.20;99.90;;;;;;4985885;28;20045;-80
2022/01/14 11:47:40;;;;;;;22.95;11.60;;;7.20;99.90;;;;;;4999787;28;20088;-80
2022/01/14 11:50:27;;;;;;;25.90;11.43;;;7.20;99.90;;;;;;5015881;28;20111;-80
2022/01/14 11:52:53;;;;;;;20.95;11.05;;;7.20;99.90;;;;;;5016222;28;20091;-80
2022/01/14 11:55:21;;;;;;;24.70;11.20;;;7.30;99.90;;;;;;5015303;28;20049;-80
2022/01/14 11:57:54;;;;;;;20.83;10.93;;;7.30;99.90;;;;;;4999518;28;20447;-80
2022/01/14 12:00:37;;;;;;;24.75;11.13;;;7.30;99.90;;;;;;5011751;28;20060;-80
2022/01/14 12:03:15;;;;;;;20.98;10.55;;;7.30;99.90;;;;;;5032576;28;20460;-80
2022/01/14 12:05:55;;;;;;;23.50;10.63;;;7.30;99.90;;;;;;4999453;28;20041;-80
2022/01/14 12:08:34;;;;;;;17.60;10.10;;;7.30;99.90;;;;;;5032197;28;20135;-80
2022/01/14 12:11:09;;;;;;;18.98;10.23;;;7.30;99.90;;;;;;4982062;28;20045;-80
2022/01/14 12:13:39;;;;;;;23.13;9.80;;;7.40;99.90;;;;;;5032315;28;20532;-80
2022/01/14 12:18:58;;;;;;;19.92;8.30;;;7.40;99.90;;;;;;5015532;28;20045;-80
2022/01/14 12:21:51;;;;;;;18.95;8.45;;;7.40;99.90;;;;;;5015032;28;20546;-80
2022/01/14 12:24:30;;;;;;;19.60;8.85;;;7.40;99.90;;;;;;5015278;28;20071;-80
2022/01/14 12:27:03;;;;;;;18.23;8.35;;;7.40;99.90;;;;;;4998033;28;20049;-80
2022/01/14 12:29:38;;;;;;;18.17;8.13;;;7.40;99.90;;;;;;5002273;28;20036;-80
2022/01/14 12:32:12;;;;;;;17.95;7.82;;;7.40;99.90;;;;;;5018213;28;20080;-80
2022/01/14 12:34:57;;;;;;;19.70;8.30;;;7.50;99.90;;;;;;5018668;28;20051;-80
2022/01/14 12:37:35;;;;;;;18.30;7.43;;;7.50;99.90;;;;;;5035027;28;20041;-80
2022/01/14 12:40:09;;;;;;;20.60;7.70;;;7.50;99.90;;;;;;5035335;28;20102;-80
2022/01/14 12:42:36;;;;;;;20.70;7.47;;;7.40;99.90;;;;;;5034384;28;20041;-80
2022/01/14 12:45:05;;;;;;;17.80;7.53;;;7.50;99.90;;;;;;5018792;28;20047;-80
2022/01/14 12:47:34;;;;;;;20.70;7.18;;;7.50;99.90;;;;;;5022642;28;20041;-80
2022/01/14 12:50:11;;;;;;;17.92;7.18;;;7.50;99.90;;;;;;5022482;28;20053;-80
2022/01/14 12:52:50;;;;;;;17.48;7.85;;;7.50;99.90;;;;;;5039225;28;20094;-80
2022/01/14 12:55:17;;;;;;;17.75;7.15;;;7.50;99.90;;;;;;5038681;28;20048;-80
2022/01/14 12:57:43;;;;;;;16.95;7.97;;;7.50;99.90;;;;;;5021938;28;20045;-80
2022/01/14 13:00:11;;;;;;;19.80;7.72;;;7.50;99.90;;;;;;5022070;28;20129;-80
2022/01/14 13:02:38;;;;;;;20.10;7.63;;;7.50;99.90;;;;;;5022578;28;20432;-80
2022/01/14 13:05:16;;;;;;;18.52;6.68;;;7.50;99.90;;;;;;5022100;28;20076;-80
2022/01/14 13:07:43;;;;;;;18.45;7.38;;;7.50;99.90;;;;;;5038712;28;20041;-80
2022/01/14 13:10:11;;;;;;;21.15;7.50;;;7.50;99.90;;;;;;5022077;28;20040;-80
2022/01/14 13:12:42;;;;;;;16.08;6.78;;;7.50;99.90;;;;;;5038217;28;20045;-80